sensor_id;sensor_type;location;lat;lon;timestamp;P1;durP1;ratioP1;P2;durP2;ratioP2
30533;SDS011;17318;52.390;9.754;2022-11-25T18:12:08;35.47;;;15.48;;
30533;SDS011;17318;52.390;9.754;2022-11-25T18:14:43;53.53;;;19.02;;
30533;SDS011;17318;52.390;9.754;2022-11-25T18:17:11;37.22;;;17.27;;
30533;SDS011;17318;52.390;9.754;2022-11-25T18:19:40;38.42;;;15.65;;
30533;SDS011;17318;52.390;9.754;2022-11-25T18:22:11;37.28;;;16.75;;
30533;SDS011;17318;52.390;9.754;2022-11-25T18:24:38;42.55;;;15.57;;
30533;SDS011;17318;52.390;9.754;2022-11-25T18:27:05;37.40;;;16.83;;
30533;SDS011;17318;52.390;9.754;2022-11-25T18:29:34;34.70;;;14.45;;
30533;SDS011;17318;52.390;9.754;2022-11-25T18:32:00;24.13;;;11.57;;
30533;SDS011;17318;52.390;9.754;2022-11-25T18:34:25;30.30;;;11.75;;
30533;SDS011;17318;52.390;9.754;2022-11-25T18:36:52;26.02;;;10.57;;
30533;SDS011;17318;52.390;9.754;2022-11-25T18:39:17;24.40;;;9.63;;
30533;SDS011;17318;52.390;9.754;2022-11-25T18:41:44;23.30;;;10.27;;
30533;SDS011;17318;52.390;9.754;2022-11-25T18:44:25;27.80;;;9.75;;
30533;SDS011;17318;52.390;9.754;2022-11-25T18:46:53;22.25;;;9.73;;
30533;SDS011;17318;52.390;9.754;2022-11-25T18:49:18;20.73;;;8.52;;
30533;SDS011;17318;52.390;9.754;2022-11-25T18:51:45;25.05;;;9.27;;
30533;SDS011;17318;52.390;9.754;2022-11-25T18:54:11;20.95;;;9.20;;
30533;SDS011;17318;52.390;9.754;2022-11-25T18:56:37;16.52;;;7.18;;
30533;SDS011;17318;52.390;9.754;2022-11-25T18:59:05;28.02;;;8.90;;
30533;SDS011;17318;52.390;9.754;2022-11-25T19:01:37;22.13;;;8.65;;
30533;SDS011;17318;52.390;9.754;2022-11-25T19:04:03;24.70;;;8.25;;
30533;SDS011;17318;52.390;9.754;2022-11-25T19:06:29;24.25;;;8.77;;
30533;SDS011;17318;52.390;9.754;2022-11-25T19:08:55;19.02;;;8.52;;
30533;SDS011;17318;52.390;9.754;2022-11-25T19:11:28;17.98;;;7.32;;
30533;SDS011;17318;52.390;9.754;2022-11-25T19:14:06;19.33;;;7.45;;
30533;SDS011;17318;52.390;9.754;2022-11-25T19:16:38;16.90;;;7.35;;
30533;SDS011;17318;52.390;9.754;2022-11-25T19:19:05;17.20;;;7.47;;
30533;SDS011;17318;52.390;9.754;2022-11-25T19:21:31;21.70;;;8.57;;
30533;SDS011;17318;52.390;9.754;2022-11-25T19:23:57;18.75;;;7.00;;
30533;SDS011;17318;52.390;9.754;2022-11-25T19:26:25;27.80;;;10.48;;
30533;SDS011;17318;52.390;9.754;2022-11-25T19:28:57;22.33;;;8.60;;
30533;SDS011;17318;52.390;9.754;2022-11-25T19:31:31;21.98;;;7.35;;
30533;SDS011;17318;52.390;9.754;2022-11-25T19:33:58;26.45;;;8.55;;
30533;SDS011;17318;52.390;9.754;2022-11-25T19:36:26;25.83;;;8.20;;
30533;SDS011;17318;52.390;9.754;2022-11-25T19:38:54;22.38;;;7.25;;
30533;SDS011;17318;52.390;9.754;2022-11-25T19:41:20;17.95;;;6.53;;
30533;SDS011;17318;52.390;9.754;2022-11-25T19:43:46;25.50;;;7.13;;
30533;SDS011;17318;52.390;9.754;2022-11-25T19:48:51;21.52;;;5.60;;
30533;SDS011;17318;52.390;9.754;2022-11-25T19:51:20;16.40;;;5.70;;
30533;SDS011;17318;52.390;9.754;2022-11-25T19:53:48;23.92;;;5.47;;
30533;SDS011;17318;52.390;9.754;2022-11-25T19:56:17;13.98;;;5.18;;
30533;SDS011;17318;52.390;9.754;2022-11-25T19:58:46;19.42;;;6.10;;
30533;SDS011;17318;52.390;9.754;2022-11-25T20:01:12;21.88;;;7.30;;
30533;SDS011;17318;52.390;9.754;2022-11-25T20:03:39;27.53;;;9.00;;
30533;SDS011;17318;52.390;9.754;2022-11-25T20:06:11;21.08;;;7.70;;
30533;SDS011;17318;52.390;9.754;2022-11-25T20:08:39;25.80;;;8.35;;
30533;SDS011;17318;52.390;9.754;2022-11-25T20:11:05;25.65;;;8.52;;
30533;SDS011;17318;52.390;9.754;2022-11-25T20:13:30;17.08;;;6.00;;
30533;SDS011;17318;52.390;9.754;2022-11-25T20:15:58;28.83;;;7.95;;
30533;SDS011;17318;52.390;9.754;2022-11-25T20:18:24;17.00;;;6.25;;
30533;SDS011;17318;52.390;9.754;2022-11-25T20:20:57;23.15;;;6.68;;
30533;SDS011;17318;52.390;9.754;2022-11-25T20:23:27;19.08;;;7.07;;
30533;SDS011;17318;52.390;9.754;2022-11-25T20:25:59;22.67;;;6.95;;
30533;SDS011;17318;52.390;9.754;2022-11-25T20:28:27;26.17;;;8.15;;
30533;SDS011;17318;52.390;9.754;2022-11-25T20:30:54;19.33;;;6.57;;
30533;SDS011;17318;52.390;9.754;2022-11-25T20:33:23;16.88;;;6.50;;
30533;SDS011;17318;52.390;9.754;2022-11-25T20:35:50;23.60;;;7.30;;
30533;SDS011;17318;52.390;9.754;2022-11-25T20:38:23;21.23;;;7.95;;
30533;SDS011;17318;52.390;9.754;2022-11-25T20:40:53;16.17;;;7.25;;
30533;SDS011;17318;52.390;9.754;2022-11-25T20:46:08;25.20;;;7.72;;
30533;SDS011;17318;52.390;9.754;2022-11-25T20:48:39;19.38;;;7.72;;
30533;SDS011;17318;52.390;9.754;2022-11-25T20:51:05;27.23;;;10.25;;
30533;SDS011;17318;52.390;9.754;2022-11-25T20:53:37;31.90;;;8.13;;
30533;SDS011;17318;52.390;9.754;2022-11-25T20:56:04;19.60;;;7.90;;
30533;SDS011;17318;52.390;9.754;2022-11-25T20:58:30;23.73;;;7.22;;
30533;SDS011;17318;52.390;9.754;2022-11-25T21:00:57;25.17;;;8.10;;
30533;SDS011;17318;52.390;9.754;2022-11-25T21:03:23;21.27;;;7.90;;
30533;SDS011;17318;52.390;9.754;2022-11-25T21:05:52;24.98;;;8.43;;
30533;SDS011;17318;52.390;9.754;2022-11-25T21:08:20;23.88;;;9.13;;
30533;SDS011;17318;52.390;9.754;2022-11-25T21:10:48;29.52;;;8.50;;
30533;SDS011;17318;52.390;9.754;2022-11-25T21:13:22;21.70;;;8.25;;
30533;SDS011;17318;52.390;9.754;2022-11-25T21:15:53;22.35;;;8.05;;
30533;SDS011;17318;52.390;9.754;2022-11-25T21:18:20;29.02;;;8.18;;
30533;SDS011;17318;52.390;9.754;2022-11-25T21:20:50;23.27;;;7.75;;
30533;SDS011;17318;52.390;9.754;2022-11-25T21:23:18;26.50;;;8.35;;
30533;SDS011;17318;52.390;9.754;2022-11-25T21:25:46;21.55;;;8.45;;
30533;SDS011;17318;52.390;9.754;2022-11-25T21:28:16;17.83;;;7.95;;
30533;SDS011;17318;52.390;9.754;2022-11-25T21:30:45;21.92;;;8.38;;
30533;SDS011;17318;52.390;9.754;2022-11-25T21:33:11;22.23;;;8.85;;
30533;SDS011;17318;52.390;9.754;2022-11-25T21:35:37;27.38;;;9.07;;
30533;SDS011;17318;52.390;9.754;2022-11-25T21:38:12;23.58;;;8.15;;
30533;SDS011;17318;52.390;9.754;2022-11-25T21:40:41;19.98;;;8.00;;
30533;SDS011;17318;52.390;9.754;2022-11-25T21:43:25;22.50;;;8.50;;
30533;SDS011;17318;52.390;9.754;2022-11-25T21:46:03;19.17;;;7.75;;
30533;SDS011;17318;52.390;9.754;2022-11-25T21:48:31;26.90;;;8.90;;
30533;SDS011;17318;52.390;9.754;2022-11-25T21:50:57;21.05;;;9.27;;
30533;SDS011;17318;52.390;9.754;2022-11-25T21:53:23;31.58;;;9.48;;
30533;SDS011;17318;52.390;9.754;2022-11-25T21:55:49;24.42;;;8.75;;
30533;SDS011;17318;52.390;9.754;2022-11-25T21:58:19;31.55;;;9.13;;
30533;SDS011;17318;52.390;9.754;2022-11-25T22:00:52;23.45;;;8.80;;
30533;SDS011;17318;52.390;9.754;2022-11-25T22:03:20;20.98;;;8.63;;
30533;SDS011;17318;52.390;9.754;2022-11-25T22:05:47;27.48;;;9.45;;
30533;SDS011;17318;52.390;9.754;2022-11-25T22:08:13;28.45;;;10.35;;
30533;SDS011;17318;52.390;9.754;2022-11-25T22:10:39;25.27;;;9.13;;
30533;SDS011;17318;52.390;9.754;2022-11-25T22:13:10;26.63;;;9.35;;
30533;SDS011;17318;52.390;9.754;2022-11-25T22:15:42;26.13;;;9.38;;
30533;SDS011;17318;52.390;9.754;2022-11-25T22:18:16;24.33;;;9.40;;
30533;SDS011;17318;52.390;9.754;2022-11-25T22:20:46;21.08;;;8.50;;
30533;SDS011;17318;52.390;9.754;2022-11-25T22:23:15;26.55;;;8.65;;
30533;SDS011;17318;52.390;9.754;2022-11-25T22:25:42;27.10;;;9.02;;
30533;SDS011;17318;52.390;9.754;2022-11-25T22:28:13;28.27;;;9.15;;
30533;SDS011;17318;52.390;9.754;2022-11-25T22:30:44;24.25;;;9.38;;
30533;SDS011;17318;52.390;9.754;2022-11-25T22:33:15;25.33;;;9.45;;
30533;SDS011;17318;52.390;9.754;2022-11-25T22:35:42;24.45;;;9.50;;
30533;SDS011;17318;52.390;9.754;2022-11-25T22:38:15;29.02;;;9.25;;
30533;SDS011;17318;52.390;9.754;2022-11-25T22:40:46;28.60;;;9.55;;
30533;SDS011;17318;52.390;9.754;2022-11-25T22:43:16;28.67;;;8.38;;
30533;SDS011;17318;52.390;9.754;2022-11-25T22:45:52;22.42;;;9.07;;
30533;SDS011;17318;52.390;9.754;2022-11-25T22:48:20;27.17;;;8.93;;
30533;SDS011;17318;52.390;9.754;2022-11-25T22:50:51;27.90;;;9.75;;
30533;SDS011;17318;52.390;9.754;2022-11-25T22:53:17;30.33;;;10.50;;
30533;SDS011;17318;52.390;9.754;2022-11-25T22:55:43;27.35;;;9.50;;
30533;SDS011;17318;52.390;9.754;2022-11-25T22:58:12;25.75;;;9.52;;
30533;SDS011;17318;52.390;9.754;2022-11-25T23:00:40;33.30;;;9.65;;
30533;SDS011;17318;52.390;9.754;2022-11-25T23:05:49;21.67;;;10.77;;
30533;SDS011;17318;52.390;9.754;2022-11-25T23:08:17;26.73;;;9.57;;
30533;SDS011;17318;52.390;9.754;2022-11-25T23:10:45;25.70;;;10.75;;
30533;SDS011;17318;52.390;9.754;2022-11-25T23:13:11;32.47;;;10.55;;
30533;SDS011;17318;52.390;9.754;2022-11-25T23:15:40;27.90;;;10.77;;
30533;SDS011;17318;52.390;9.754;2022-11-25T23:18:09;23.52;;;9.55;;
30533;SDS011;17318;52.390;9.754;2022-11-25T23:20:39;30.13;;;11.43;;
30533;SDS011;17318;52.390;9.754;2022-11-25T23:23:15;34.15;;;10.48;;
30533;SDS011;17318;52.390;9.754;2022-11-25T23:25:43;30.02;;;10.98;;
30533;SDS011;17318;52.390;9.754;2022-11-25T23:28:09;21.63;;;9.68;;
30533;SDS011;17318;52.390;9.754;2022-11-25T23:30:35;27.48;;;9.60;;
30533;SDS011;17318;52.390;9.754;2022-11-25T23:33:01;25.15;;;9.98;;
30533;SDS011;17318;52.390;9.754;2022-11-25T23:35:34;26.67;;;10.40;;
30533;SDS011;17318;52.390;9.754;2022-11-25T23:38:01;35.80;;;11.73;;
30533;SDS011;17318;52.390;9.754;2022-11-25T23:42:55;29.65;;;9.68;;
30533;SDS011;17318;52.390;9.754;2022-11-25T23:45:21;31.45;;;10.77;;
30533;SDS011;17318;52.390;9.754;2022-11-25T23:47:49;27.00;;;10.25;;
30533;SDS011;17318;52.390;9.754;2022-11-25T23:50:21;25.90;;;9.93;;
30533;SDS011;17318;52.390;9.754;2022-11-25T23:53:00;30.85;;;10.70;;
30533;SDS011;17318;52.390;9.754;2022-11-25T23:55:30;28.58;;;11.02;;
30533;SDS011;17318;52.390;9.754;2022-11-25T23:57:59;26.73;;;10.50;;
